sensor_id;sensor_type;location;lat;lon;timestamp;P1;durP1;ratioP1;P2;durP2;ratioP2
51020;SDS011;38907;45.562;8.856;2023-04-30T00:03:34;36.95;;;23.92;;
51020;SDS011;38907;45.562;8.856;2023-04-30T00:08:37;32.33;;;22.60;;
51020;SDS011;38907;45.562;8.856;2023-04-30T00:13:39;30.48;;;22.52;;
51020;SDS011;38907;45.562;8.856;2023-04-30T00:18:42;27.10;;;20.60;;
51020;SDS011;38907;45.562;8.856;2023-04-30T00:23:46;27.90;;;21.10;;
51020;SDS011;38907;45.562;8.856;2023-04-30T00:28:47;30.95;;;20.63;;
51020;SDS011;38907;45.562;8.856;2023-04-30T00:33:49;24.75;;;18.23;;
51020;SDS011;38907;45.562;8.856;2023-04-30T00:38:53;27.33;;;20.60;;
51020;SDS011;38907;45.562;8.856;2023-04-30T00:43:55;25.08;;;17.75;;
51020;SDS011;38907;45.562;8.856;2023-04-30T00:48:57;26.67;;;18.75;;
51020;SDS011;38907;45.562;8.856;2023-04-30T00:54:05;26.20;;;19.42;;
51020;SDS011;38907;45.562;8.856;2023-04-30T00:59:08;30.65;;;18.98;;
51020;SDS011;38907;45.562;8.856;2023-04-30T01:04:12;27.75;;;17.55;;
51020;SDS011;38907;45.562;8.856;2023-04-30T01:09:15;23.88;;;17.85;;
51020;SDS011;38907;45.562;8.856;2023-04-30T01:14:20;24.23;;;18.45;;
51020;SDS011;38907;45.562;8.856;2023-04-30T01:19:29;27.35;;;18.50;;
51020;SDS011;38907;45.562;8.856;2023-04-30T01:24:52;30.02;;;18.88;;
51020;SDS011;38907;45.562;8.856;2023-04-30T01:30:08;27.55;;;18.83;;
51020;SDS011;38907;45.562;8.856;2023-04-30T01:35:12;27.05;;;18.35;;
51020;SDS011;38907;45.562;8.856;2023-04-30T01:40:18;28.30;;;18.50;;
51020;SDS011;38907;45.562;8.856;2023-04-30T01:45:34;25.73;;;19.05;;
51020;SDS011;38907;45.562;8.856;2023-04-30T01:50:47;25.35;;;18.17;;
51020;SDS011;38907;45.562;8.856;2023-04-30T01:55:54;23.70;;;17.75;;
51020;SDS011;38907;45.562;8.856;2023-04-30T02:01:01;27.98;;;19.15;;
51020;SDS011;38907;45.562;8.856;2023-04-30T02:06:03;24.35;;;18.35;;
51020;SDS011;38907;45.562;8.856;2023-04-30T02:11:05;25.52;;;17.63;;
51020;SDS011;38907;45.562;8.856;2023-04-30T02:16:08;25.42;;;18.52;;
51020;SDS011;38907;45.562;8.856;2023-04-30T02:21:10;26.08;;;18.73;;
51020;SDS011;38907;45.562;8.856;2023-04-30T02:26:12;29.67;;;18.73;;
51020;SDS011;38907;45.562;8.856;2023-04-30T02:31:15;24.48;;;17.65;;
51020;SDS011;38907;45.562;8.856;2023-04-30T02:36:17;28.50;;;18.73;;
51020;SDS011;38907;45.562;8.856;2023-04-30T02:41:19;26.75;;;18.75;;
51020;SDS011;38907;45.562;8.856;2023-04-30T02:46:22;24.77;;;17.83;;
51020;SDS011;38907;45.562;8.856;2023-04-30T02:51:24;25.42;;;18.08;;
51020;SDS011;38907;45.562;8.856;2023-04-30T02:56:27;30.38;;;19.17;;
51020;SDS011;38907;45.562;8.856;2023-04-30T03:01:30;26.95;;;18.23;;
51020;SDS011;38907;45.562;8.856;2023-04-30T03:06:32;27.65;;;19.92;;
51020;SDS011;38907;45.562;8.856;2023-04-30T03:11:34;26.17;;;18.63;;
51020;SDS011;38907;45.562;8.856;2023-04-30T03:16:38;31.23;;;20.17;;
51020;SDS011;38907;45.562;8.856;2023-04-30T03:21:40;22.98;;;18.60;;
51020;SDS011;38907;45.562;8.856;2023-04-30T03:26:42;27.40;;;20.33;;
51020;SDS011;38907;45.562;8.856;2023-04-30T03:31:45;28.92;;;18.67;;
51020;SDS011;38907;45.562;8.856;2023-04-30T03:36:47;26.40;;;18.88;;
51020;SDS011;38907;45.562;8.856;2023-04-30T03:41:49;25.95;;;19.55;;
51020;SDS011;38907;45.562;8.856;2023-04-30T03:46:52;25.42;;;19.85;;
51020;SDS011;38907;45.562;8.856;2023-04-30T03:51:54;30.45;;;20.92;;
51020;SDS011;38907;45.562;8.856;2023-04-30T03:56:55;31.27;;;20.13;;
51020;SDS011;38907;45.562;8.856;2023-04-30T04:02:00;33.30;;;21.27;;
51020;SDS011;38907;45.562;8.856;2023-04-30T04:07:02;32.72;;;22.17;;
51020;SDS011;38907;45.562;8.856;2023-04-30T04:12:04;30.52;;;23.75;;
51020;SDS011;38907;45.562;8.856;2023-04-30T04:17:07;32.07;;;22.23;;
51020;SDS011;38907;45.562;8.856;2023-04-30T04:22:09;30.35;;;21.50;;
51020;SDS011;38907;45.562;8.856;2023-04-30T04:27:11;30.67;;;21.67;;
51020;SDS011;38907;45.562;8.856;2023-04-30T04:32:14;31.08;;;22.20;;
51020;SDS011;38907;45.562;8.856;2023-04-30T04:37:16;34.55;;;21.80;;
51020;SDS011;38907;45.562;8.856;2023-04-30T04:42:18;31.48;;;22.33;;
51020;SDS011;38907;45.562;8.856;2023-04-30T04:47:21;29.90;;;22.73;;
51020;SDS011;38907;45.562;8.856;2023-04-30T04:52:23;29.33;;;22.15;;
51020;SDS011;38907;45.562;8.856;2023-04-30T04:57:25;30.02;;;21.23;;
51020;SDS011;38907;45.562;8.856;2023-04-30T05:02:28;31.90;;;21.55;;
51020;SDS011;38907;45.562;8.856;2023-04-30T05:07:31;29.33;;;20.42;;
51020;SDS011;38907;45.562;8.856;2023-04-30T05:12:34;33.10;;;21.52;;
51020;SDS011;38907;45.562;8.856;2023-04-30T05:17:37;31.55;;;21.77;;
51020;SDS011;38907;45.562;8.856;2023-04-30T05:22:39;35.53;;;22.90;;
51020;SDS011;38907;45.562;8.856;2023-04-30T05:27:40;32.33;;;21.83;;
51020;SDS011;38907;45.562;8.856;2023-04-30T05:32:44;32.50;;;21.05;;
51020;SDS011;38907;45.562;8.856;2023-04-30T05:37:49;31.10;;;23.08;;
51020;SDS011;38907;45.562;8.856;2023-04-30T05:42:51;30.95;;;23.10;;
51020;SDS011;38907;45.562;8.856;2023-04-30T05:47:54;35.40;;;23.13;;
51020;SDS011;38907;45.562;8.856;2023-04-30T05:52:56;31.30;;;23.15;;
51020;SDS011;38907;45.562;8.856;2023-04-30T05:57:58;33.13;;;23.92;;
51020;SDS011;38907;45.562;8.856;2023-04-30T06:03:01;35.67;;;24.20;;
51020;SDS011;38907;45.562;8.856;2023-04-30T06:08:03;33.80;;;23.15;;
51020;SDS011;38907;45.562;8.856;2023-04-30T06:13:05;29.88;;;22.70;;
51020;SDS011;38907;45.562;8.856;2023-04-30T06:18:08;31.33;;;22.15;;
51020;SDS011;38907;45.562;8.856;2023-04-30T06:23:13;30.83;;;21.52;;
51020;SDS011;38907;45.562;8.856;2023-04-30T06:28:15;26.70;;;19.35;;
51020;SDS011;38907;45.562;8.856;2023-04-30T06:33:18;28.08;;;20.60;;
51020;SDS011;38907;45.562;8.856;2023-04-30T06:38:20;26.90;;;19.75;;
51020;SDS011;38907;45.562;8.856;2023-04-30T06:43:22;27.90;;;19.88;;
51020;SDS011;38907;45.562;8.856;2023-04-30T06:48:25;31.65;;;20.05;;
51020;SDS011;38907;45.562;8.856;2023-04-30T06:53:27;33.25;;;20.30;;
51020;SDS011;38907;45.562;8.856;2023-04-30T06:58:29;28.67;;;19.10;;
51020;SDS011;38907;45.562;8.856;2023-04-30T07:03:32;27.08;;;20.45;;
51020;SDS011;38907;45.562;8.856;2023-04-30T07:08:35;34.92;;;19.25;;
51020;SDS011;38907;45.562;8.856;2023-04-30T07:13:40;25.60;;;18.75;;
51020;SDS011;38907;45.562;8.856;2023-04-30T07:18:43;25.35;;;18.85;;
51020;SDS011;38907;45.562;8.856;2023-04-30T07:23:47;27.13;;;20.58;;
51020;SDS011;38907;45.562;8.856;2023-04-30T07:28:50;24.38;;;17.83;;
51020;SDS011;38907;45.562;8.856;2023-04-30T07:33:53;27.30;;;18.75;;
51020;SDS011;38907;45.562;8.856;2023-04-30T07:38:55;34.28;;;20.52;;
51020;SDS011;38907;45.562;8.856;2023-04-30T07:43:57;25.90;;;20.10;;
51020;SDS011;38907;45.562;8.856;2023-04-30T07:49:01;32.03;;;21.00;;
51020;SDS011;38907;45.562;8.856;2023-04-30T07:54:03;32.53;;;20.23;;
51020;SDS011;38907;45.562;8.856;2023-04-30T07:59:05;27.87;;;19.43;;
51020;SDS011;38907;45.562;8.856;2023-04-30T08:04:08;27.17;;;20.08;;
51020;SDS011;38907;45.562;8.856;2023-04-30T08:09:10;32.42;;;20.13;;
51020;SDS011;38907;45.562;8.856;2023-04-30T08:14:12;32.00;;;18.58;;
51020;SDS011;38907;45.562;8.856;2023-04-30T08:19:15;26.17;;;19.37;;
51020;SDS011;38907;45.562;8.856;2023-04-30T08:24:17;28.80;;;18.65;;
51020;SDS011;38907;45.562;8.856;2023-04-30T08:29:19;28.65;;;20.13;;
51020;SDS011;38907;45.562;8.856;2023-04-30T08:34:22;30.03;;;18.57;;
51020;SDS011;38907;45.562;8.856;2023-04-30T08:39:24;26.48;;;17.85;;
51020;SDS011;38907;45.562;8.856;2023-04-30T08:44:26;29.90;;;18.33;;
51020;SDS011;38907;45.562;8.856;2023-04-30T08:49:30;21.65;;;15.85;;
51020;SDS011;38907;45.562;8.856;2023-04-30T08:54:33;23.42;;;16.55;;
51020;SDS011;38907;45.562;8.856;2023-04-30T08:59:36;18.27;;;14.40;;
51020;SDS011;38907;45.562;8.856;2023-04-30T09:04:40;21.73;;;15.57;;
51020;SDS011;38907;45.562;8.856;2023-04-30T09:09:43;21.30;;;15.68;;
51020;SDS011;38907;45.562;8.856;2023-04-30T09:14:57;22.80;;;16.90;;
51020;SDS011;38907;45.562;8.856;2023-04-30T09:20:08;20.98;;;15.32;;
51020;SDS011;38907;45.562;8.856;2023-04-30T09:25:11;20.60;;;15.13;;
51020;SDS011;38907;45.562;8.856;2023-04-30T09:30:20;18.63;;;14.57;;
51020;SDS011;38907;45.562;8.856;2023-04-30T09:35:34;22.08;;;14.43;;
51020;SDS011;38907;45.562;8.856;2023-04-30T09:40:38;23.98;;;16.42;;
51020;SDS011;38907;45.562;8.856;2023-04-30T09:45:42;20.00;;;14.88;;
51020;SDS011;38907;45.562;8.856;2023-04-30T09:50:47;19.83;;;12.90;;
51020;SDS011;38907;45.562;8.856;2023-04-30T09:55:50;22.35;;;14.48;;
51020;SDS011;38907;45.562;8.856;2023-04-30T10:00:53;20.50;;;13.13;;
51020;SDS011;38907;45.562;8.856;2023-04-30T10:06:01;21.42;;;12.68;;
51020;SDS011;38907;45.562;8.856;2023-04-30T10:11:08;19.08;;;12.35;;
51020;SDS011;38907;45.562;8.856;2023-04-30T10:16:18;18.13;;;12.48;;
51020;SDS011;38907;45.562;8.856;2023-04-30T10:21:29;17.63;;;13.85;;
51020;SDS011;38907;45.562;8.856;2023-04-30T10:26:33;23.73;;;14.70;;
51020;SDS011;38907;45.562;8.856;2023-04-30T10:31:35;21.93;;;14.17;;
51020;SDS011;38907;45.562;8.856;2023-04-30T10:36:41;21.25;;;13.85;;
51020;SDS011;38907;45.562;8.856;2023-04-30T10:41:46;18.52;;;13.93;;
51020;SDS011;38907;45.562;8.856;2023-04-30T10:46:48;17.67;;;13.38;;
51020;SDS011;38907;45.562;8.856;2023-04-30T10:51:51;19.50;;;13.57;;
51020;SDS011;38907;45.562;8.856;2023-04-30T10:57:07;20.17;;;14.23;;
51020;SDS011;38907;45.562;8.856;2023-04-30T11:02:11;17.23;;;14.40;;
51020;SDS011;38907;45.562;8.856;2023-04-30T11:07:17;23.42;;;15.05;;
51020;SDS011;38907;45.562;8.856;2023-04-30T11:12:19;21.30;;;14.05;;
51020;SDS011;38907;45.562;8.856;2023-04-30T11:17:27;19.80;;;14.98;;
51020;SDS011;38907;45.562;8.856;2023-04-30T11:22:31;19.02;;;12.38;;
51020;SDS011;38907;45.562;8.856;2023-04-30T11:27:36;17.00;;;12.50;;
51020;SDS011;38907;45.562;8.856;2023-04-30T11:32:39;17.42;;;12.15;;
51020;SDS011;38907;45.562;8.856;2023-04-30T11:37:43;15.52;;;12.38;;
51020;SDS011;38907;45.562;8.856;2023-04-30T11:42:45;16.70;;;11.43;;
51020;SDS011;38907;45.562;8.856;2023-04-30T11:47:48;14.88;;;11.18;;
51020;SDS011;38907;45.562;8.856;2023-04-30T11:52:52;14.02;;;9.75;;
51020;SDS011;38907;45.562;8.856;2023-04-30T11:57:57;14.80;;;9.82;;
51020;SDS011;38907;45.562;8.856;2023-04-30T12:02:59;18.70;;;10.20;;
51020;SDS011;38907;45.562;8.856;2023-04-30T12:08:07;13.00;;;9.20;;
51020;SDS011;38907;45.562;8.856;2023-04-30T12:13:12;14.77;;;9.30;;
51020;SDS011;38907;45.562;8.856;2023-04-30T12:18:15;11.32;;;8.32;;
51020;SDS011;38907;45.562;8.856;2023-04-30T12:23:19;13.97;;;7.90;;
51020;SDS011;38907;45.562;8.856;2023-04-30T12:28:22;9.73;;;8.52;;
51020;SDS011;38907;45.562;8.856;2023-04-30T12:33:24;12.55;;;9.45;;
51020;SDS011;38907;45.562;8.856;2023-04-30T12:38:32;16.33;;;8.40;;
51020;SDS011;38907;45.562;8.856;2023-04-30T12:43:34;13.55;;;8.70;;
51020;SDS011;38907;45.562;8.856;2023-04-30T12:48:41;12.83;;;9.73;;
51020;SDS011;38907;45.562;8.856;2023-04-30T12:53:46;14.45;;;9.05;;
51020;SDS011;38907;45.562;8.856;2023-04-30T12:58:48;8.90;;;7.93;;
51020;SDS011;38907;45.562;8.856;2023-04-30T13:03:52;9.55;;;7.38;;
51020;SDS011;38907;45.562;8.856;2023-04-30T13:08:59;11.77;;;7.43;;
51020;SDS011;38907;45.562;8.856;2023-04-30T13:14:01;11.52;;;7.55;;
51020;SDS011;38907;45.562;8.856;2023-04-30T13:19:04;9.63;;;7.90;;
51020;SDS011;38907;45.562;8.856;2023-04-30T13:24:11;10.73;;;8.23;;
51020;SDS011;38907;45.562;8.856;2023-04-30T13:29:13;13.93;;;8.20;;
51020;SDS011;38907;45.562;8.856;2023-04-30T13:34:15;9.80;;;8.00;;
51020;SDS011;38907;45.562;8.856;2023-04-30T13:39:23;11.93;;;8.38;;
51020;SDS011;38907;45.562;8.856;2023-04-30T13:44:30;9.75;;;7.63;;
51020;SDS011;38907;45.562;8.856;2023-04-30T13:49:36;11.82;;;7.68;;
51020;SDS011;38907;45.562;8.856;2023-04-30T13:54:39;11.67;;;8.00;;
51020;SDS011;38907;45.562;8.856;2023-04-30T13:59:42;11.88;;;7.70;;
51020;SDS011;38907;45.562;8.856;2023-04-30T14:04:44;10.27;;;7.67;;
51020;SDS011;38907;45.562;8.856;2023-04-30T14:14:53;9.77;;;7.65;;
51020;SDS011;38907;45.562;8.856;2023-04-30T14:19:55;8.90;;;6.57;;
51020;SDS011;38907;45.562;8.856;2023-04-30T14:24:59;10.00;;;7.30;;
51020;SDS011;38907;45.562;8.856;2023-04-30T14:30:02;10.75;;;6.97;;
51020;SDS011;38907;45.562;8.856;2023-04-30T14:35:05;10.02;;;7.07;;
51020;SDS011;38907;45.562;8.856;2023-04-30T14:40:11;10.65;;;7.53;;
51020;SDS011;38907;45.562;8.856;2023-04-30T14:45:13;10.32;;;7.20;;
51020;SDS011;38907;45.562;8.856;2023-04-30T14:50:16;8.75;;;6.88;;
51020;SDS011;38907;45.562;8.856;2023-04-30T14:55:21;9.68;;;7.60;;
51020;SDS011;38907;45.562;8.856;2023-04-30T15:00:26;17.35;;;7.78;;
51020;SDS011;38907;45.562;8.856;2023-04-30T15:05:29;9.13;;;7.13;;
51020;SDS011;38907;45.562;8.856;2023-04-30T15:10:36;11.02;;;6.07;;
51020;SDS011;38907;45.562;8.856;2023-04-30T15:15:42;9.15;;;7.25;;
51020;SDS011;38907;45.562;8.856;2023-04-30T15:20:49;11.10;;;6.28;;
51020;SDS011;38907;45.562;8.856;2023-04-30T15:25:54;11.63;;;6.63;;
51020;SDS011;38907;45.562;8.856;2023-04-30T15:30:57;10.60;;;6.28;;
51020;SDS011;38907;45.562;8.856;2023-04-30T15:36:00;13.25;;;6.88;;
51020;SDS011;38907;45.562;8.856;2023-04-30T15:41:06;9.23;;;6.07;;
51020;SDS011;38907;45.562;8.856;2023-04-30T15:46:10;10.75;;;6.07;;
51020;SDS011;38907;45.562;8.856;2023-04-30T15:51:12;10.33;;;6.60;;
51020;SDS011;38907;45.562;8.856;2023-04-30T15:56:16;7.97;;;6.77;;
51020;SDS011;38907;45.562;8.856;2023-04-30T16:01:19;12.32;;;7.13;;
51020;SDS011;38907;45.562;8.856;2023-04-30T16:06:22;11.80;;;6.30;;
51020;SDS011;38907;45.562;8.856;2023-04-30T16:11:25;12.13;;;6.55;;
51020;SDS011;38907;45.562;8.856;2023-04-30T16:16:28;7.55;;;5.82;;
51020;SDS011;38907;45.562;8.856;2023-04-30T16:21:29;9.33;;;4.63;;
51020;SDS011;38907;45.562;8.856;2023-04-30T16:26:33;8.37;;;4.53;;
51020;SDS011;38907;45.562;8.856;2023-04-30T16:31:35;5.63;;;3.65;;
51020;SDS011;38907;45.562;8.856;2023-04-30T16:36:37;3.50;;;3.00;;
51020;SDS011;38907;45.562;8.856;2023-04-30T16:41:40;10.93;;;7.63;;
51020;SDS011;38907;45.562;8.856;2023-04-30T16:46:42;15.02;;;9.57;;
51020;SDS011;38907;45.562;8.856;2023-04-30T16:51:44;15.90;;;10.50;;
51020;SDS011;38907;45.562;8.856;2023-04-30T16:56:48;10.45;;;7.35;;
51020;SDS011;38907;45.562;8.856;2023-04-30T17:01:50;8.23;;;5.82;;
51020;SDS011;38907;45.562;8.856;2023-04-30T17:06:55;10.85;;;6.88;;
51020;SDS011;38907;45.562;8.856;2023-04-30T17:11:59;8.82;;;6.93;;
51020;SDS011;38907;45.562;8.856;2023-04-30T17:17:02;11.57;;;9.18;;
51020;SDS011;38907;45.562;8.856;2023-04-30T17:22:04;12.27;;;9.13;;
51020;SDS011;38907;45.562;8.856;2023-04-30T17:27:08;11.70;;;9.40;;
51020;SDS011;38907;45.562;8.856;2023-04-30T17:32:10;10.50;;;7.78;;
51020;SDS011;38907;45.562;8.856;2023-04-30T17:37:11;10.82;;;7.85;;
51020;SDS011;38907;45.562;8.856;2023-04-30T17:42:15;10.55;;;8.63;;
51020;SDS011;38907;45.562;8.856;2023-04-30T17:47:16;11.27;;;7.88;;
51020;SDS011;38907;45.562;8.856;2023-04-30T17:52:18;9.30;;;6.43;;
51020;SDS011;38907;45.562;8.856;2023-04-30T17:57:22;6.88;;;6.00;;
51020;SDS011;38907;45.562;8.856;2023-04-30T18:02:24;9.75;;;6.05;;
51020;SDS011;38907;45.562;8.856;2023-04-30T18:07:26;7.55;;;6.75;;
51020;SDS011;38907;45.562;8.856;2023-04-30T18:12:29;5.00;;;4.50;;
51020;SDS011;38907;45.562;8.856;2023-04-30T18:22:33;3.85;;;3.45;;
51020;SDS011;38907;45.562;8.856;2023-04-30T18:27:41;8.32;;;3.58;;
51020;SDS011;38907;45.562;8.856;2023-04-30T18:32:43;3.42;;;3.10;;
51020;SDS011;38907;45.562;8.856;2023-04-30T18:37:45;3.60;;;3.30;;
51020;SDS011;38907;45.562;8.856;2023-04-30T18:42:48;4.20;;;2.05;;
51020;SDS011;38907;45.562;8.856;2023-04-30T18:47:50;3.13;;;2.30;;
51020;SDS011;38907;45.562;8.856;2023-04-30T18:52:52;2.40;;;1.90;;
51020;SDS011;38907;45.562;8.856;2023-04-30T18:57:55;2.22;;;1.80;;
51020;SDS011;38907;45.562;8.856;2023-04-30T19:07:59;2.00;;;1.63;;
51020;SDS011;38907;45.562;8.856;2023-04-30T19:13:02;2.70;;;1.80;;
51020;SDS011;38907;45.562;8.856;2023-04-30T19:23:06;2.30;;;1.52;;
51020;SDS011;38907;45.562;8.856;2023-04-30T19:28:09;1.95;;;1.70;;
51020;SDS011;38907;45.562;8.856;2023-04-30T19:33:13;1.95;;;1.35;;
51020;SDS011;38907;45.562;8.856;2023-04-30T19:38:15;2.35;;;1.73;;
51020;SDS011;38907;45.562;8.856;2023-04-30T19:43:19;1.52;;;1.40;;
51020;SDS011;38907;45.562;8.856;2023-04-30T19:48:23;1.58;;;1.27;;
51020;SDS011;38907;45.562;8.856;2023-04-30T19:53:26;1.65;;;1.33;;
51020;SDS011;38907;45.562;8.856;2023-04-30T19:58:29;1.88;;;1.33;;
51020;SDS011;38907;45.562;8.856;2023-04-30T20:03:31;1.75;;;1.65;;
51020;SDS011;38907;45.562;8.856;2023-04-30T20:08:34;1.58;;;1.45;;
51020;SDS011;38907;45.562;8.856;2023-04-30T20:13:38;3.10;;;1.60;;
51020;SDS011;38907;45.562;8.856;2023-04-30T20:18:40;1.55;;;1.38;;
51020;SDS011;38907;45.562;8.856;2023-04-30T20:23:42;1.52;;;1.42;;
51020;SDS011;38907;45.562;8.856;2023-04-30T20:28:46;2.33;;;1.50;;
51020;SDS011;38907;45.562;8.856;2023-04-30T20:33:48;1.10;;;1.00;;
51020;SDS011;38907;45.562;8.856;2023-04-30T20:38:50;1.50;;;1.40;;
51020;SDS011;38907;45.562;8.856;2023-04-30T20:43:56;1.50;;;1.08;;
51020;SDS011;38907;45.562;8.856;2023-04-30T20:48:59;1.48;;;1.30;;
51020;SDS011;38907;45.562;8.856;2023-04-30T20:54:04;1.80;;;1.13;;
51020;SDS011;38907;45.562;8.856;2023-04-30T20:59:09;1.38;;;1.27;;
51020;SDS011;38907;45.562;8.856;2023-04-30T21:04:11;1.50;;;1.20;;
51020;SDS011;38907;45.562;8.856;2023-04-30T21:09:13;1.17;;;1.08;;
51020;SDS011;38907;45.562;8.856;2023-04-30T21:14:17;1.75;;;1.10;;
51020;SDS011;38907;45.562;8.856;2023-04-30T21:19:20;1.83;;;1.00;;
51020;SDS011;38907;45.562;8.856;2023-04-30T21:24:22;1.50;;;1.10;;
51020;SDS011;38907;45.562;8.856;2023-04-30T21:29:25;1.27;;;1.00;;
51020;SDS011;38907;45.562;8.856;2023-04-30T21:34:28;1.33;;;1.20;;
51020;SDS011;38907;45.562;8.856;2023-04-30T21:39:31;1.15;;;1.00;;
51020;SDS011;38907;45.562;8.856;2023-04-30T21:44:34;1.45;;;1.20;;
51020;SDS011;38907;45.562;8.856;2023-04-30T21:54:37;1.65;;;1.23;;
51020;SDS011;38907;45.562;8.856;2023-04-30T21:59:41;1.20;;;1.10;;
51020;SDS011;38907;45.562;8.856;2023-04-30T22:04:44;2.70;;;1.55;;
51020;SDS011;38907;45.562;8.856;2023-04-30T22:09:46;1.35;;;1.10;;
51020;SDS011;38907;45.562;8.856;2023-04-30T22:14:52;1.38;;;1.27;;
51020;SDS011;38907;45.562;8.856;2023-04-30T22:19:54;1.60;;;1.20;;
51020;SDS011;38907;45.562;8.856;2023-04-30T22:24:56;1.93;;;1.27;;
51020;SDS011;38907;45.562;8.856;2023-04-30T22:29:59;2.08;;;1.35;;
51020;SDS011;38907;45.562;8.856;2023-04-30T22:35:02;2.42;;;1.40;;
51020;SDS011;38907;45.562;8.856;2023-04-30T22:40:06;1.52;;;1.25;;
51020;SDS011;38907;45.562;8.856;2023-04-30T22:45:10;1.23;;;1.13;;
51020;SDS011;38907;45.562;8.856;2023-04-30T22:50:12;1.20;;;1.10;;
51020;SDS011;38907;45.562;8.856;2023-04-30T22:55:14;1.05;;;0.82;;
51020;SDS011;38907;45.562;8.856;2023-04-30T23:00:18;1.20;;;1.10;;
51020;SDS011;38907;45.562;8.856;2023-04-30T23:05:20;1.00;;;0.88;;
51020;SDS011;38907;45.562;8.856;2023-04-30T23:10:22;1.08;;;0.98;;
51020;SDS011;38907;45.562;8.856;2023-04-30T23:15:25;1.02;;;0.98;;
51020;SDS011;38907;45.562;8.856;2023-04-30T23:25:29;1.90;;;1.20;;
51020;SDS011;38907;45.562;8.856;2023-04-30T23:30:35;1.83;;;0.97;;
51020;SDS011;38907;45.562;8.856;2023-04-30T23:35:40;1.58;;;1.10;;
51020;SDS011;38907;45.562;8.856;2023-04-30T23:40:42;1.10;;;0.93;;
51020;SDS011;38907;45.562;8.856;2023-04-30T23:45:46;1.20;;;1.03;;
51020;SDS011;38907;45.562;8.856;2023-04-30T23:55:57;0.80;;;0.80;;
